Time;durP1;ratioP1;P1;durP2;ratioP2;P2;SDS_P1;SDS_P2;PMS_P1;PMS_P2;Temp;Humidity;BMP_temperature;BMP_pressure;BME280_temperature;BME280_humidity;BME280_pressure;Samples;Min_cycle;Max_cycle;Signal;HPM_P1;HPM_P2
2022/09/10 00:02:06;;;;;;;7.15;4.22;;;;;;;;;;5034297;28;20088;-89
2022/09/10 00:04:34;;;;;;;8.55;4.85;;;;;;;;;;5032902;28;20486;-89
2022/09/10 00:07:01;;;;;;;25.92;4.60;;;;;;;;;;5033139;28;20053;-88
2022/09/10 00:09:28;;;;;;;90.32;7.32;;;;;;;;;;5033163;28;20413;-88
2022/09/10 00:11:56;;;;;;;27.20;4.80;;;;;;;;;;5032868;28;20057;-88
2022/09/10 00:14:23;;;;;;;6.78;4.57;;;;;;;;;;5033064;28;20064;-89
2022/09/10 00:16:51;;;;;;;5.32;3.58;;;;;;;;;;5032835;28;20056;-88
2022/09/10 00:19:18;;;;;;;4.05;3.45;;;;;;;;;;5033377;28;20046;-89
2022/09/10 00:21:46;;;;;;;3.95;3.47;;;;;;;;;;5032774;28;20056;-89
2022/09/10 00:24:13;;;;;;;7.80;3.65;;;;;;;;;;5033888;28;20049;-88
2022/09/10 00:26:40;;;;;;;6.97;4.15;;;;;;;;;;5032561;28;20061;-89
2022/09/10 00:29:09;;;;;;;5.60;3.97;;;;;;;;;;5033863;28;20045;-88
2022/09/10 00:31:36;;;;;;;4.45;4.05;;;;;;;;;;5033795;28;20050;-89
2022/09/10 00:34:04;;;;;;;4.30;3.88;;;;;;;;;;5033184;28;20045;-88
2022/09/10 00:36:34;;;;;;;3.15;2.92;;;;;;;;;;5032857;28;20107;-88
2022/09/10 00:39:04;;;;;;;3.50;3.20;;;;;;;;;;5032940;28;20052;-89
2022/09/10 00:41:33;;;;;;;4.30;3.13;;;;;;;;;;5034007;28;20049;-88
2022/09/10 00:44:01;;;;;;;2.97;2.58;;;;;;;;;;5033890;28;20089;-88
2022/09/10 00:46:35;;;;;;;4.60;2.80;;;;;;;;;;5032620;28;20050;-89
2022/09/10 00:49:05;;;;;;;3.45;2.72;;;;;;;;;;5032925;28;20054;-89
2022/09/10 00:51:33;;;;;;;3.03;2.75;;;;;;;;;;5032996;28;20049;-88
2022/09/10 00:54:01;;;;;;;3.17;2.85;;;;;;;;;;5033789;28;20049;-89
2022/09/10 00:56:29;;;;;;;4.20;3.25;;;;;;;;;;5036727;28;20052;-89
2022/09/10 00:58:57;;;;;;;4.25;3.78;;;;;;;;;;5037172;28;20124;-89
2022/09/10 01:01:24;;;;;;;5.32;4.20;;;;;;;;;;5036685;28;20050;-89
2022/09/10 01:03:52;;;;;;;7.60;4.97;;;;;;;;;;5037452;28;20049;-89
2022/09/10 01:06:19;;;;;;;6.40;5.13;;;;;;;;;;5036275;28;20060;-89
2022/09/10 01:08:46;;;;;;;9.95;5.25;;;;;;;;;;5037286;28;20490;-89
2022/09/10 01:11:36;;;;;;;7.90;5.75;;;;;;;;;;5037317;28;20057;-89
2022/09/10 01:14:24;;;;;;;6.13;5.60;;;;;;;;;;5036556;28;20057;-89
2022/09/10 01:16:54;;;;;;;6.85;4.68;;;;;;;;;;5036127;28;20050;-89
2022/09/10 01:19:35;;;;;;;21.95;5.88;;;;;;;;;;5037220;28;20060;-89
2022/09/10 01:22:10;;;;;;;95.38;8.45;;;;;;;;;;5037401;28;20045;-89
2022/09/10 01:24:43;;;;;;;7.43;5.95;;;;;;;;;;5035887;28;20054;-88
2022/09/10 01:27:30;;;;;;;5.70;5.03;;;;;;;;;;5036108;28;20068;-89
2022/09/10 01:30:04;;;;;;;10.10;5.85;;;;;;;;;;5037111;28;20124;-89
2022/09/10 01:32:44;;;;;;;5.75;5.25;;;;;;;;;;5032670;28;20050;-88
2022/09/10 01:35:16;;;;;;;7.10;4.45;;;;;;;;;;5031464;28;20406;-88
2022/09/10 01:37:48;;;;;;;4.45;3.72;;;;;;;;;;5032559;28;20108;-90
2022/09/10 01:40:16;;;;;;;4.97;4.47;;;;;;;;;;5032664;28;20077;-88
2022/09/10 01:42:44;;;;;;;4.95;3.53;;;;;;;;;;5032565;28;20050;-88
2022/09/10 01:45:13;;;;;;;6.43;2.97;;;;;;;;;;5041451;28;20054;-88
2022/09/10 01:47:59;;;;;;;4.72;4.30;;;;;;;;;;5045739;28;20056;-87
2022/09/10 01:50:45;;;;;;;4.10;3.17;;;;;;;;;;5017001;28;20057;-89
2022/09/10 01:53:12;;;;;;;5.10;3.47;;;;;;;;;;5016955;28;20061;-89
2022/09/10 01:55:44;;;;;;;9.50;5.07;;;;;;;;;;5032043;28;20046;-88
2022/09/10 01:58:24;;;;;;;8.38;5.53;;;;;;;;;;5032317;28;20117;-88
2022/09/10 02:00:55;;;;;;;8.85;5.82;;;;;;;;;;5032382;28;20130;-89
2022/09/10 02:03:23;;;;;;;8.13;5.80;;;;;;;;;;5016538;28;20425;-90
2022/09/10 02:05:52;;;;;;;6.35;5.68;;;;;;;;;;5031210;28;20049;-89
2022/09/10 02:08:22;;;;;;;5.75;5.28;;;;;;;;;;5016571;28;20414;-88
2022/09/10 02:10:54;;;;;;;8.73;5.22;;;;;;;;;;5031713;28;20068;-89
2022/09/10 02:13:22;;;;;;;7.65;5.80;;;;;;;;;;5031712;28;20065;-89
2022/09/10 02:15:51;;;;;;;6.18;4.30;;;;;;;;;;5016139;28;20056;-88
2022/09/10 02:18:22;;;;;;;7.93;6.38;;;;;;;;;;5032104;28;20050;-88
2022/09/10 02:20:50;;;;;;;6.65;4.90;;;;;;;;;;5031586;28;20060;-88
2022/09/10 02:23:20;;;;;;;5.00;4.55;;;;;;;;;;5031452;28;20076;-89
2022/09/10 02:25:48;;;;;;;5.50;3.78;;;;;;;;;;5031354;28;20050;-89
2022/09/10 02:28:16;;;;;;;5.85;3.83;;;;;;;;;;5016115;28;20080;-88
2022/09/10 02:30:43;;;;;;;6.05;3.97;;;;;;;;;;5034444;28;20073;-88
2022/09/10 02:33:10;;;;;;;4.70;4.32;;;;;;;;;;5034926;28;20061;-88
2022/09/10 02:35:38;;;;;;;6.63;3.63;;;;;;;;;;5035534;28;20056;-89
2022/09/10 02:38:05;;;;;;;8.48;3.67;;;;;;;;;;5034738;28;20056;-90
2022/09/10 02:40:32;;;;;;;3.60;3.30;;;;;;;;;;5035654;28;20050;-88
2022/09/10 02:42:59;;;;;;;4.28;3.53;;;;;;;;;;5035862;28;20049;-89
2022/09/10 02:45:26;;;;;;;5.88;3.67;;;;;;;;;;5034545;28;20417;-87
2022/09/10 02:47:53;;;;;;;5.53;2.83;;;;;;;;;;5034548;28;20414;-89
2022/09/10 02:50:23;;;;;;;3.08;2.88;;;;;;;;;;5034622;28;20490;-89
2022/09/10 02:52:50;;;;;;;2.60;2.28;;;;;;;;;;5034891;28;20057;-89
2022/09/10 02:55:17;;;;;;;6.03;3.10;;;;;;;;;;5035160;28;20490;-89
2022/09/10 02:57:44;;;;;;;4.03;2.42;;;;;;;;;;5034434;28;20064;-89
2022/09/10 03:00:12;;;;;;;5.25;3.33;;;;;;;;;;5035646;28;20458;-89
2022/09/10 03:02:39;;;;;;;5.88;2.70;;;;;;;;;;5034372;28;20057;-89
2022/09/10 03:05:07;;;;;;;6.53;2.70;;;;;;;;;;5035344;28;20049;-90
2022/09/10 03:07:34;;;;;;;3.75;2.40;;;;;;;;;;5035211;28;20053;-90
2022/09/10 03:10:01;;;;;;;5.65;2.50;;;;;;;;;;5035537;28;20060;-90
2022/09/10 03:12:28;;;;;;;3.97;2.42;;;;;;;;;;5034293;28;20077;-89
2022/09/10 03:14:57;;;;;;;6.55;2.60;;;;;;;;;;5034468;28;20068;-89
2022/09/10 03:17:25;;;;;;;4.03;2.28;;;;;;;;;;5032909;28;20053;-89
2022/09/10 03:19:52;;;;;;;3.00;2.00;;;;;;;;;;5035305;28;20058;-89
2022/09/10 03:22:19;;;;;;;4.10;2.50;;;;;;;;;;5035522;28;20056;-89
2022/09/10 03:24:46;;;;;;;3.05;2.22;;;;;;;;;;5033849;28;20053;-90
2022/09/10 03:27:15;;;;;;;3.70;2.63;;;;;;;;;;5034816;28;20395;-90
2022/09/10 03:29:43;;;;;;;5.93;2.10;;;;;;;;;;5036517;28;20049;-90
2022/09/10 03:32:10;;;;;;;3.97;2.75;;;;;;;;;;5033451;28;20058;-89
2022/09/10 03:34:38;;;;;;;3.10;2.28;;;;;;;;;;5031280;28;20048;-89
2022/09/10 03:37:06;;;;;;;4.03;2.38;;;;;;;;;;5030449;28;20053;-90
2022/09/10 03:39:33;;;;;;;7.43;2.90;;;;;;;;;;5015220;28;20140;-91
2022/09/10 03:42:04;;;;;;;3.80;3.15;;;;;;;;;;5030557;28;20058;-90
2022/09/10 03:44:32;;;;;;;3.92;3.50;;;;;;;;;;5015145;28;20173;-90
2022/09/10 03:47:00;;;;;;;2.70;2.50;;;;;;;;;;5030340;28;20505;-90
2022/09/10 03:49:29;;;;;;;2.92;2.33;;;;;;;;;;5015152;28;20144;-89
2022/09/10 03:51:56;;;;;;;9.70;2.65;;;;;;;;;;5030477;28;20549;-91
2022/09/10 03:54:23;;;;;;;3.05;2.20;;;;;;;;;;5030168;28;20411;-88
2022/09/10 03:56:51;;;;;;;4.80;3.22;;;;;;;;;;5030112;28;20056;-90
2022/09/10 03:59:18;;;;;;;4.57;3.75;;;;;;;;;;5014995;28;20054;-90
2022/09/10 04:01:46;;;;;;;4.43;3.15;;;;;;;;;;5029932;28;20142;-90
2022/09/10 04:04:13;;;;;;;6.03;3.38;;;;;;;;;;5030213;28;20475;-90
2022/09/10 04:06:41;;;;;;;3.85;3.42;;;;;;;;;;5030132;28;20520;-90
2022/09/10 04:09:08;;;;;;;5.65;4.15;;;;;;;;;;5014818;28;20053;-91
2022/09/10 04:11:36;;;;;;;3.50;3.20;;;;;;;;;;5049149;28;20042;-90
2022/09/10 04:14:03;;;;;;;3.40;3.10;;;;;;;;;;5040587;28;20081;-90
2022/09/10 04:16:31;;;;;;;5.38;3.50;;;;;;;;;;5030124;28;20081;-91
2022/09/10 04:18:58;;;;;;;5.22;3.00;;;;;;;;;;5014732;28;20052;-90
2022/09/10 04:21:26;;;;;;;3.83;3.00;;;;;;;;;;5029876;28;20056;-90
2022/09/10 04:23:54;;;;;;;4.47;3.67;;;;;;;;;;5029410;28;20046;-90
2022/09/10 04:26:21;;;;;;;4.55;3.10;;;;;;;;;;5013856;28;20057;-90
2022/09/10 04:28:49;;;;;;;3.28;2.92;;;;;;;;;;5029203;28;20065;-90
2022/09/10 04:31:16;;;;;;;5.65;3.75;;;;;;;;;;5016277;28;20053;-91
2022/09/10 04:33:43;;;;;;;3.92;3.00;;;;;;;;;;5032869;28;20477;-90
2022/09/10 04:36:13;;;;;;;10.77;3.63;;;;;;;;;;5033031;28;20466;-90
2022/09/10 04:38:42;;;;;;;5.72;3.08;;;;;;;;;;5032681;28;20057;-90
2022/09/10 04:41:09;;;;;;;7.03;2.92;;;;;;;;;;5032825;28;20045;-89
2022/09/10 04:43:37;;;;;;;6.93;2.95;;;;;;;;;;5032622;28;20132;-90
2022/09/10 04:46:04;;;;;;;5.07;3.00;;;;;;;;;;5032926;28;20061;-90
2022/09/10 04:48:32;;;;;;;2.72;2.53;;;;;;;;;;5032641;28;20053;-90
2022/09/10 04:50:59;;;;;;;4.70;3.60;;;;;;;;;;5032559;28;20057;-90
2022/09/10 04:53:42;;;;;;;7.22;3.35;;;;;;;;;;5032568;28;20068;-90
2022/09/10 04:56:10;;;;;;;3.60;3.25;;;;;;;;;;5033379;28;20474;-90
2022/09/10 04:58:37;;;;;;;5.22;3.47;;;;;;;;;;5033556;28;20049;-90
2022/09/10 05:01:05;;;;;;;8.13;5.35;;;;;;;;;;5032776;28;20060;-89
2022/09/10 05:03:32;;;;;;;9.60;4.85;;;;;;;;;;5033414;28;20053;-90
2022/09/10 05:05:59;;;;;;;4.50;4.20;;;;;;;;;;5032533;28;20049;-91
2022/09/10 05:08:27;;;;;;;8.75;5.15;;;;;;;;;;5033392;28;20060;-90
2022/09/10 05:10:54;;;;;;;5.10;4.70;;;;;;;;;;5032565;28;20429;-90
2022/09/10 05:13:23;;;;;;;4.95;4.53;;;;;;;;;;5032547;28;20386;-90
2022/09/10 05:15:50;;;;;;;4.38;4.05;;;;;;;;;;5032366;28;20171;-90
2022/09/10 05:18:17;;;;;;;5.53;4.10;;;;;;;;;;5033074;28;20050;-90
2022/09/10 05:20:44;;;;;;;4.03;3.67;;;;;;;;;;5033187;28;20060;-89
2022/09/10 05:23:11;;;;;;;6.53;4.13;;;;;;;;;;5033199;28;20049;-90
2022/09/10 05:25:39;;;;;;;6.78;5.18;;;;;;;;;;5032470;28;20052;-91
2022/09/10 05:28:06;;;;;;;10.90;4.20;;;;;;;;;;5032319;28;20057;-89
2022/09/10 05:30:33;;;;;;;5.63;3.67;;;;;;;;;;5031844;28;20501;-90
2022/09/10 05:33:00;;;;;;;8.13;3.70;;;;;;;;;;5032243;28;20482;-90
2022/09/10 05:35:29;;;;;;;6.03;3.85;;;;;;;;;;5032208;28;20129;-90
2022/09/10 05:37:56;;;;;;;4.95;3.40;;;;;;;;;;5033017;28;20048;-90
2022/09/10 05:40:24;;;;;;;4.47;3.90;;;;;;;;;;5033850;28;20049;-90
2022/09/10 05:42:53;;;;;;;5.82;4.60;;;;;;;;;;5036210;28;20139;-91
2022/09/10 05:45:20;;;;;;;6.45;4.00;;;;;;;;;;5035733;28;20434;-89
2022/09/10 05:47:47;;;;;;;6.32;5.18;;;;;;;;;;5035977;28;20058;-90
2022/09/10 05:50:16;;;;;;;6.45;4.00;;;;;;;;;;5035718;28;20053;-89
2022/09/10 05:52:43;;;;;;;11.40;4.95;;;;;;;;;;5036082;28;20080;-90
2022/09/10 05:55:11;;;;;;;18.90;5.90;;;;;;;;;;5035629;28;20076;-90
2022/09/10 05:57:39;;;;;;;13.68;5.55;;;;;;;;;;5035641;28;20060;-90
2022/09/10 06:00:09;;;;;;;7.07;4.90;;;;;;;;;;5035713;28;20061;-91
2022/09/10 06:02:37;;;;;;;12.35;5.35;;;;;;;;;;5035513;28;20057;-90
2022/09/10 06:05:04;;;;;;;9.43;5.10;;;;;;;;;;5035341;28;20088;-90
2022/09/10 06:07:31;;;;;;;22.25;5.30;;;;;;;;;;5035409;28;20060;-90
2022/09/10 06:09:59;;;;;;;14.02;5.97;;;;;;;;;;5035615;28;20053;-90
2022/09/10 06:12:26;;;;;;;6.53;5.20;;;;;;;;;;5035235;28;20405;-91
2022/09/10 06:14:53;;;;;;;11.02;6.40;;;;;;;;;;5035561;28;20052;-91
2022/09/10 06:17:21;;;;;;;20.50;11.27;;;;;;;;;;5035347;28;20065;-90
2022/09/10 06:19:50;;;;;;;15.13;6.70;;;;;;;;;;5019098;28;20056;-90
2022/09/10 06:22:17;;;;;;;13.77;7.70;;;;;;;;;;5035173;28;20076;-91
2022/09/10 06:24:48;;;;;;;15.48;8.38;;;;;;;;;;5035132;28;20076;-89
2022/09/10 06:27:16;;;;;;;7.18;6.28;;;;;;;;;;5035538;28;20049;-90
2022/09/10 06:29:43;;;;;;;7.28;5.68;;;;;;;;;;5034996;28;20049;-91
2022/09/10 06:32:10;;;;;;;7.28;4.00;;;;;;;;;;5034895;28;20076;-91
2022/09/10 06:34:37;;;;;;;6.35;5.45;;;;;;;;;;5035405;28;20053;-91
2022/09/10 06:37:05;;;;;;;6.15;4.80;;;;;;;;;;5049964;28;20101;-91
2022/09/10 06:39:32;;;;;;;10.38;5.05;;;;;;;;;;5045268;28;20063;-90
2022/09/10 06:42:00;;;;;;;11.50;8.73;;;;;;;;;;5034978;28;20383;-91
2022/09/10 06:44:28;;;;;;;10.85;7.40;;;;;;;;;;5034901;28;20054;-91
2022/09/10 06:46:55;;;;;;;7.55;6.95;;;;;;;;;;5034976;28;20076;-92
2022/09/10 06:49:42;;;;;;;9.32;8.10;;;;;;;;;;5034818;28;20061;-91
2022/09/10 06:52:13;;;;;;;8.57;7.22;;;;;;;;;;5034504;28;20053;-91
2022/09/10 06:54:41;;;;;;;6.72;5.32;;;;;;;;;;5034817;28;20056;-92
2022/09/10 06:57:08;;;;;;;4.32;3.35;;;;;;;;;;5034328;28;20482;-92
2022/09/10 06:59:35;;;;;;;3.85;3.00;;;;;;;;;;5035010;28;20079;-94
2022/09/10 07:02:02;;;;;;;3.95;3.40;;;;;;;;;;5034522;28;20057;-91
2022/09/10 07:04:30;;;;;;;7.85;4.60;;;;;;;;;;5035392;28;20057;-92
2022/09/10 07:06:58;;;;;;;3.67;2.90;;;;;;;;;;5035797;28;20057;-92
2022/09/10 07:09:26;;;;;;;3.72;2.38;;;;;;;;;;5035727;28;20057;-91
2022/09/10 07:11:53;;;;;;;2.53;2.38;;;;;;;;;;5035960;28;20053;-92
2022/09/10 07:14:20;;;;;;;4.65;2.40;;;;;;;;;;5034457;28;20071;-90
2022/09/10 07:16:50;;;;;;;3.55;2.08;;;;;;;;;;5035261;28;20052;-90
2022/09/10 07:19:17;;;;;;;4.20;2.42;;;;;;;;;;5035566;28;20064;-90
2022/09/10 07:21:44;;;;;;;4.10;2.53;;;;;;;;;;5035133;28;20049;-90
2022/09/10 07:24:13;;;;;;;3.47;2.50;;;;;;;;;;5034143;28;20157;-93
2022/09/10 07:26:40;;;;;;;4.32;2.20;;;;;;;;;;5034395;28;20053;-88
2022/09/10 07:29:07;;;;;;;3.20;2.40;;;;;;;;;;5035110;28;20050;-89
2022/09/10 07:31:37;;;;;;;1.95;1.83;;;;;;;;;;5033845;28;20513;-89
2022/09/10 07:34:04;;;;;;;2.97;1.50;;;;;;;;;;5035232;28;20061;-89
2022/09/10 07:36:31;;;;;;;1.40;1.00;;;;;;;;;;5033542;28;20046;-91
2022/09/10 07:39:02;;;;;;;2.53;1.20;;;;;;;;;;5034205;28;20041;-90
2022/09/10 07:41:32;;;;;;;4.32;1.20;;;;;;;;;;5035151;28;20049;-88
2022/09/10 07:44:00;;;;;;;3.17;1.13;;;;;;;;;;5034487;28;20067;-86
2022/09/10 07:46:27;;;;;;;2.53;0.90;;;;;;;;;;5035582;28;20164;-90
2022/09/10 07:48:55;;;;;;;2.33;1.00;;;;;;;;;;5035669;28;20481;-92
2022/09/10 07:51:23;;;;;;;2.50;0.93;;;;;;;;;;5034233;28;20412;-86
2022/09/10 07:53:54;;;;;;;2.03;0.65;;;;;;;;;;5036246;28;20055;-88
2022/09/10 07:56:22;;;;;;;1.90;1.00;;;;;;;;;;5034504;28;20061;-90
2022/09/10 07:58:49;;;;;;;1.05;0.73;;;;;;;;;;5036363;28;20050;-94
2022/09/10 08:01:22;;;;;;;2.30;0.80;;;;;;;;;;5036984;28;20470;-91
2022/09/10 08:03:50;;;;;;;1.27;0.60;;;;;;;;;;5034148;28;20061;-92
2022/09/10 08:06:18;;;;;;;2.13;0.55;;;;;;;;;;5035739;28;20564;-93
2022/09/10 08:08:45;;;;;;;3.30;0.75;;;;;;;;;;5035210;28;20085;-91
2022/09/10 08:11:16;;;;;;;1.00;0.77;;;;;;;;;;5034921;28;20045;-91
2022/09/10 08:13:45;;;;;;;2.58;0.50;;;;;;;;;;5034946;28;20088;-88
2022/09/10 08:16:13;;;;;;;1.13;0.80;;;;;;;;;;5034095;28;20084;-91
2022/09/10 08:18:42;;;;;;;3.30;0.57;;;;;;;;;;5033986;28;20571;-91
2022/09/10 08:21:09;;;;;;;3.03;0.75;;;;;;;;;;5033456;28;20175;-89
2022/09/10 08:23:38;;;;;;;2.92;0.70;;;;;;;;;;5033865;28;20525;-92
2022/09/10 08:26:06;;;;;;;1.85;0.95;;;;;;;;;;5033323;28;20405;-91
2022/09/10 08:28:37;;;;;;;1.80;0.60;;;;;;;;;;5033033;28;20501;-87
2022/09/10 08:31:09;;;;;;;0.57;0.40;;;;;;;;;;5032829;28;20081;-90
2022/09/10 08:33:39;;;;;;;1.80;0.35;;;;;;;;;;5033072;28;20088;-90
2022/09/10 08:36:08;;;;;;;1.10;0.52;;;;;;;;;;5032924;28;20041;-89
2022/09/10 08:38:36;;;;;;;1.77;0.50;;;;;;;;;;5033366;28;20520;-89
2022/09/10 08:41:27;;;;;;;0.60;0.50;;;;;;;;;;5033446;28;20057;-91
2022/09/10 08:43:54;;;;;;;1.75;0.50;;;;;;;;;;5033227;28;20406;-91
2022/09/10 08:46:24;;;;;;;0.63;0.60;;;;;;;;;;5032840;28;20283;-90
2022/09/10 08:48:54;;;;;;;0.73;0.47;;;;;;;;;;5032783;28;20053;-89
2022/09/10 08:51:26;;;;;;;1.83;0.80;;;;;;;;;;5033171;28;20500;-93
2022/09/10 08:53:55;;;;;;;2.83;0.70;;;;;;;;;;5033380;28;20406;-92
2022/09/10 08:56:23;;;;;;;1.50;0.40;;;;;;;;;;5032735;28;20052;-91
2022/09/10 08:58:53;;;;;;;0.98;0.45;;;;;;;;;;5032865;28;20053;-91
2022/09/10 09:01:29;;;;;;;0.80;0.30;;;;;;;;;;5032701;28;20052;-89
2022/09/10 09:03:57;;;;;;;1.30;0.60;;;;;;;;;;5035837;28;20049;-90
2022/09/10 09:06:32;;;;;;;0.88;0.30;;;;;;;;;;5039826;28;20072;-87
2022/09/10 09:09:00;;;;;;;2.45;0.47;;;;;;;;;;5032829;28;20049;-91
2022/09/10 09:11:45;;;;;;;0.60;0.32;;;;;;;;;;5032533;28;20041;-90
2022/09/10 09:14:32;;;;;;;1.35;0.60;;;;;;;;;;5033260;28;20053;-90
2022/09/10 09:17:18;;;;;;;2.28;0.50;;;;;;;;;;5037960;28;20046;-88
2022/09/10 09:20:04;;;;;;;2.65;0.50;;;;;;;;;;5038241;28;20049;-86
2022/09/10 09:23:04;;;;;;;2.42;0.70;;;;;;;;;;5036356;28;20117;-90
2022/09/10 09:25:31;;;;;;;3.60;0.60;;;;;;;;;;4967685;28;20137;-89
2022/09/10 09:27:59;;;;;;;1.75;0.40;;;;;;;;;;5036335;28;20486;-90
2022/09/10 09:30:39;;;;;;;1.40;0.60;;;;;;;;;;5036582;28;20132;-90
2022/09/10 09:33:13;;;;;;;2.40;0.47;;;;;;;;;;5036487;28;20056;-90
2022/09/10 09:35:48;;;;;;;3.20;2.45;;;;;;;;;;5037749;28;20061;-90
2022/09/10 09:38:18;;;;;;;1.42;0.90;;;;;;;;;;5036310;28;20502;-90
2022/09/10 09:40:47;;;;;;;2.85;1.13;;;;;;;;;;5038026;28;20507;-88
2022/09/10 09:43:23;;;;;;;1.58;0.65;;;;;;;;;;5037165;28;20496;-88
2022/09/10 09:45:52;;;;;;;3.15;0.70;;;;;;;;;;5037889;28;20474;-88
2022/09/10 09:48:21;;;;;;;0.60;0.30;;;;;;;;;;5037936;28;20107;-91
2022/09/10 09:50:49;;;;;;;1.15;0.40;;;;;;;;;;5036679;28;20049;-92
2022/09/10 09:53:19;;;;;;;2.00;0.55;;;;;;;;;;5035743;28;20500;-89
2022/09/10 09:55:50;;;;;;;0.88;0.43;;;;;;;;;;5036939;28;20493;-90
2022/09/10 09:58:20;;;;;;;1.35;0.57;;;;;;;;;;5035798;28;20051;-92
2022/09/10 10:00:48;;;;;;;1.20;0.70;;;;;;;;;;5035477;28;20057;-89
2022/09/10 10:03:19;;;;;;;2.60;0.65;;;;;;;;;;5035517;28;20046;-92
2022/09/10 10:05:47;;;;;;;1.02;0.40;;;;;;;;;;5035698;28;20490;-95
2022/09/10 10:08:41;;;;;;;2.80;0.60;;;;;;;;;;5036503;28;20496;-89
2022/09/10 10:11:08;;;;;;;1.17;0.57;;;;;;;;;;4990223;28;20049;-89
2022/09/10 10:13:38;;;;;;;2.33;0.50;;;;;;;;;;5036456;28;20413;-88
2022/09/10 10:16:27;;;;;;;2.35;0.85;;;;;;;;;;5035304;28;20053;-88
2022/09/10 10:18:54;;;;;;;1.92;0.60;;;;;;;;;;5036779;28;20081;-87
2022/09/10 10:21:29;;;;;;;3.20;2.25;;;;;;;;;;5035849;28;20406;-88
2022/09/10 10:23:56;;;;;;;2.17;2.00;;;;;;;;;;5035450;28;20409;-89
2022/09/10 10:26:31;;;;;;;1.30;0.47;;;;;;;;;;5034646;28;20500;-92
2022/09/10 10:29:05;;;;;;;1.80;0.82;;;;;;;;;;5035419;28;20111;-92
2022/09/10 10:31:34;;;;;;;2.38;0.73;;;;;;;;;;5031303;28;20486;-89
2022/09/10 10:34:20;;;;;;;1.80;1.13;;;;;;;;;;5031860;28;20061;-90
2022/09/10 10:37:06;;;;;;;2.58;0.93;;;;;;;;;;5016341;28;20049;-91
2022/09/10 10:39:59;;;;;;;3.63;0.70;;;;;;;;;;5016251;28;20045;-89
2022/09/10 10:42:30;;;;;;;3.17;0.52;;;;;;;;;;5031940;28;20080;-90
2022/09/10 10:44:57;;;;;;;2.45;0.55;;;;;;;;;;5031156;28;20062;-89
2022/09/10 10:47:34;;;;;;;0.88;0.50;;;;;;;;;;5031599;28;20049;-90
2022/09/10 10:50:20;;;;;;;1.83;0.68;;;;;;;;;;5031110;28;20050;-89
2022/09/10 10:53:20;;;;;;;1.00;0.65;;;;;;;;;;5031589;28;20042;-89
2022/09/10 10:55:56;;;;;;;1.00;0.60;;;;;;;;;;4983502;28;20060;-90
2022/09/10 10:58:35;;;;;;;1.65;0.60;;;;;;;;;;5015893;28;20065;-90
2022/09/10 11:01:05;;;;;;;1.30;0.52;;;;;;;;;;5015523;28;20057;-89
2022/09/10 11:03:41;;;;;;;4.35;0.60;;;;;;;;;;5029481;28;20065;-89
2022/09/10 11:06:13;;;;;;;2.08;0.50;;;;;;;;;;5014945;28;20046;-89
2022/09/10 11:08:41;;;;;;;1.60;0.55;;;;;;;;;;5030013;28;20050;-89
2022/09/10 11:11:17;;;;;;;1.80;0.50;;;;;;;;;;5015090;28;20053;-91
2022/09/10 11:13:49;;;;;;;3.22;0.80;;;;;;;;;;5030119;28;20061;-89
2022/09/10 11:16:20;;;;;;;2.55;0.80;;;;;;;;;;5014664;28;20422;-90
2022/09/10 11:18:51;;;;;;;2.45;0.73;;;;;;;;;;5029777;28;20052;-90
2022/09/10 11:21:24;;;;;;;1.27;0.75;;;;;;;;;;5030169;28;20383;-90
2022/09/10 11:23:51;;;;;;;2.70;0.55;;;;;;;;;;5014436;28;20054;-89
2022/09/10 11:26:20;;;;;;;2.53;0.82;;;;;;;;;;5029906;28;20050;-90
2022/09/10 11:29:01;;;;;;;0.82;0.82;;;;;;;;;;5029563;28;20076;-90
2022/09/10 11:31:41;;;;;;;1.63;0.55;;;;;;;;;;5023158;28;20053;-88
2022/09/10 11:34:08;;;;;;;1.65;0.70;;;;;;;;;;5033219;28;20046;-89
2022/09/10 11:36:36;;;;;;;0.95;0.55;;;;;;;;;;5034172;28;20055;-88
2022/09/10 11:39:03;;;;;;;1.45;0.55;;;;;;;;;;5032278;28;20060;-90
2022/09/10 11:41:31;;;;;;;2.25;0.60;;;;;;;;;;5033776;28;20049;-88
2022/09/10 11:44:11;;;;;;;3.28;0.43;;;;;;;;;;5034530;28;20072;-90
2022/09/10 11:46:40;;;;;;;0.63;0.32;;;;;;;;;;5033971;28;20047;-92
2022/09/10 11:49:14;;;;;;;3.42;0.30;;;;;;;;;;5032672;28;20049;-88
2022/09/10 11:51:43;;;;;;;0.30;0.13;;;;;;;;;;5032849;28;20045;-93
2022/09/10 11:54:12;;;;;;;0.40;0.20;;;;;;;;;;5033157;28;20407;-91
2022/09/10 11:57:00;;;;;;;0.70;0.70;;;;;;;;;;5032849;28;20054;-94
2022/09/10 11:59:27;;;;;;;1.17;0.30;;;;;;;;;;5032618;28;20053;-89
2022/09/10 12:02:24;;;;;;;0.20;0.20;;;;;;;;;;5032592;28;20056;-90
2022/09/10 12:04:54;;;;;;;14.20;1.80;;;;;;;;;;4948016;28;20475;-91
2022/09/10 12:07:40;;;;;;;20.95;2.60;;;;;;;;;;5032433;28;20066;-92
2022/09/10 12:10:08;;;;;;;0.20;0.10;;;;;;;;;;5032286;28;20336;-89
2022/09/10 12:12:45;;;;;;;0.40;0.10;;;;;;;;;;5032367;28;20053;-92
2022/09/10 12:15:15;;;;;;;0.10;0.10;;;;;;;;;;5033139;28;20053;-91
2022/09/10 12:17:43;;;;;;;2.75;0.10;;;;;;;;;;5032386;28;20060;-92
2022/09/10 12:20:15;;;;;;;9.30;0.60;;;;;;;;;;5032185;28;20057;-89
2022/09/10 12:22:42;;;;;;;0.85;0.10;;;;;;;;;;5033132;28;20060;-89
2022/09/10 12:25:17;;;;;;;0.22;0.10;;;;;;;;;;5032188;28;20053;-89
2022/09/10 12:27:47;;;;;;;0.20;0.10;;;;;;;;;;5032143;28;20504;-90
2022/09/10 12:30:24;;;;;;;0.50;0.15;;;;;;;;;;5033232;28;20045;-90
2022/09/10 12:32:56;;;;;;;0.22;0.10;;;;;;;;;;5028572;28;20414;-91
2022/09/10 12:35:36;;;;;;;0.00;0.00;;;;;;;;;;5028771;28;20081;-92
2022/09/10 12:38:22;;;;;;;0.10;0.10;;;;;;;;;;5013450;28;20132;-90
2022/09/10 12:40:50;;;;;;;0.20;0.10;;;;;;;;;;5028864;28;20061;-91
2022/09/10 12:43:43;;;;;;;0.05;0.00;;;;;;;;;;5028911;28;20046;-88
2022/09/10 12:46:15;;;;;;;0.10;0.10;;;;;;;;;;5013067;28;20502;-91
2022/09/10 12:48:44;;;;;;;1.10;0.40;;;;;;;;;;5013641;28;20053;-91
2022/09/10 12:51:17;;;;;;;0.10;0.03;;;;;;;;;;5028517;28;20057;-88
2022/09/10 12:53:47;;;;;;;0.13;0.10;;;;;;;;;;5013097;28;20050;-90
2022/09/10 12:56:14;;;;;;;0.20;0.10;;;;;;;;;;5028499;28;20045;-91
2022/09/10 12:58:48;;;;;;;0.98;0.05;;;;;;;;;;5028645;28;20112;-89
2022/09/10 13:01:22;;;;;;;0.10;0.10;;;;;;;;;;5028468;28;20053;-90
2022/09/10 13:03:54;;;;;;;0.00;0.00;;;;;;;;;;5028302;28;20505;-92
2022/09/10 13:06:39;;;;;;;2.17;0.03;;;;;;;;;;5028564;28;20057;-90
2022/09/10 13:09:18;;;;;;;0.00;0.00;;;;;;;;;;5028763;28;20057;-89
2022/09/10 13:11:48;;;;;;;0.08;0.00;;;;;;;;;;5028776;28;20050;-90
2022/09/10 13:14:21;;;;;;;0.00;0.00;;;;;;;;;;5028306;28;20545;-91
2022/09/10 13:16:51;;;;;;;0.00;0.00;;;;;;;;;;5028582;28;20050;-89
2022/09/10 13:19:18;;;;;;;0.00;0.00;;;;;;;;;;5012873;28;20050;-89
2022/09/10 13:21:46;;;;;;;0.10;0.10;;;;;;;;;;5028405;28;20387;-94
2022/09/10 13:24:33;;;;;;;0.10;0.10;;;;;;;;;;5028258;28;20052;-88
2022/09/10 13:27:03;;;;;;;0.20;0.10;;;;;;;;;;5028294;28;20077;-89
2022/09/10 13:29:39;;;;;;;0.00;0.00;;;;;;;;;;5028086;28;20045;-92
2022/09/10 13:32:13;;;;;;;0.35;0.20;;;;;;;;;;5028362;28;20054;-90
2022/09/10 13:34:46;;;;;;;0.10;0.10;;;;;;;;;;5012702;28;20089;-92
2022/09/10 13:37:33;;;;;;;0.25;0.20;;;;;;;;;;5026628;28;20050;-91
2022/09/10 13:40:19;;;;;;;1.75;0.10;;;;;;;;;;5012977;28;20085;-91
2022/09/10 13:42:56;;;;;;;1.10;0.20;;;;;;;;;;5012704;28;20065;-88
2022/09/10 13:45:30;;;;;;;0.80;0.10;;;;;;;;;;5027844;28;20050;-87
2022/09/10 13:48:18;;;;;;;1.45;0.20;;;;;;;;;;5013024;28;20057;-88
2022/09/10 13:50:49;;;;;;;0.35;0.20;;;;;;;;;;5027621;28;20081;-88
2022/09/10 13:53:18;;;;;;;0.10;0.10;;;;;;;;;;5012562;28;20511;-87
2022/09/10 13:55:55;;;;;;;0.20;0.10;;;;;;;;;;5027996;28;20073;-89
2022/09/10 13:58:27;;;;;;;0.20;0.20;;;;;;;;;;5027965;28;20129;-88
2022/09/10 14:00:56;;;;;;;5.32;0.20;;;;;;;;;;5028779;28;20082;-89
2022/09/10 14:03:46;;;;;;;0.57;0.20;;;;;;;;;;5031586;28;20060;-89
2022/09/10 14:06:20;;;;;;;0.30;0.10;;;;;;;;;;5014601;28;20107;-89
2022/09/10 14:09:03;;;;;;;0.95;0.20;;;;;;;;;;5016237;28;20049;-89
2022/09/10 14:11:32;;;;;;;0.30;0.30;;;;;;;;;;5031430;28;20053;-89
2022/09/10 14:14:03;;;;;;;1.63;0.40;;;;;;;;;;5031105;28;20046;-88
2022/09/10 14:16:34;;;;;;;0.35;0.10;;;;;;;;;;5031035;28;20064;-89
2022/09/10 14:19:06;;;;;;;0.10;0.10;;;;;;;;;;5031175;28;20049;-89
2022/09/10 14:21:34;;;;;;;0.20;0.10;;;;;;;;;;5031234;28;20517;-91
2022/09/10 14:24:02;;;;;;;0.20;0.20;;;;;;;;;;5015523;28;20137;-90
2022/09/10 14:26:30;;;;;;;0.88;0.10;;;;;;;;;;5030989;28;20046;-89
2022/09/10 14:29:02;;;;;;;0.50;0.17;;;;;;;;;;5030666;28;20050;-89
2022/09/10 14:31:32;;;;;;;0.10;0.10;;;;;;;;;;5022554;28;20088;-88
2022/09/10 14:34:19;;;;;;;0.20;0.10;;;;;;;;;;5033778;28;20060;-89
2022/09/10 14:36:46;;;;;;;0.10;0.10;;;;;;;;;;5034875;28;20052;-88
2022/09/10 14:39:14;;;;;;;0.20;0.17;;;;;;;;;;5033990;28;20046;-88
2022/09/10 14:41:41;;;;;;;0.10;0.10;;;;;;;;;;5033916;28;20053;-89
2022/09/10 14:44:21;;;;;;;0.10;0.10;;;;;;;;;;5033846;28;20410;-89
2022/09/10 14:46:58;;;;;;;0.10;0.10;;;;;;;;;;5033867;28;20128;-86
2022/09/10 14:49:31;;;;;;;0.55;0.20;;;;;;;;;;5033722;28;20057;-90
2022/09/10 14:51:58;;;;;;;0.10;0.10;;;;;;;;;;5034741;28;20514;-89
2022/09/10 14:54:26;;;;;;;1.08;0.30;;;;;;;;;;5033637;28;20405;-89
2022/09/10 14:56:54;;;;;;;0.47;0.20;;;;;;;;;;5033564;28;20060;-89
2022/09/10 14:59:29;;;;;;;0.43;0.25;;;;;;;;;;5033526;28;20041;-90
2022/09/10 15:02:02;;;;;;;1.23;0.10;;;;;;;;;;5033919;28;20057;-88
2022/09/10 15:04:30;;;;;;;3.03;0.30;;;;;;;;;;5034208;28;20107;-89
2022/09/10 15:06:58;;;;;;;1.17;0.70;;;;;;;;;;5033581;28;20053;-89